Time;durP1;ratioP1;P1;durP2;ratioP2;P2;SDS_P1;SDS_P2;PMS_P1;PMS_P2;Temp;Humidity;BMP_temperature;BMP_pressure;BME280_temperature;BME280_humidity;BME280_pressure;Samples;Min_cycle;Max_cycle;Signal;HPM_P1;HPM_P2
2021/10/06 00:02:27;;;;;;;;;;;;;;;13.72;87.67;100405.59;5069109;28;19976;-75
2021/10/06 00:04:55;;;;;;;;;;;;;;;13.73;87.92;100400.06;5085578;28;19969;-75
2021/10/06 00:07:24;;;;;;;;;;;;;;;13.79;87.61;100402.28;5087120;28;19973;-75
2021/10/06 00:09:52;;;;;;;;;;;;;;;13.80;87.68;100389.63;5085078;28;20328;-75
2021/10/06 00:12:20;;;;;;;;;;;;;;;13.80;87.43;100414.78;5084891;28;20151;-75
2021/10/06 00:14:48;;;;;;;;;;;;;;;13.82;87.60;100385.81;5086401;28;19969;-75
2021/10/06 00:17:23;;;;;;;;;;;;;;;13.82;86.87;100387.66;5076851;28;19978;-75
2021/10/06 00:19:51;;;;;;;;;;;;;;;13.83;87.02;100390.22;5085494;28;20039;-75
2021/10/06 00:22:18;;;;;;;;;;;;;;;13.87;87.23;100388.09;5087037;28;20350;-75
2021/10/06 00:24:48;;;;;;;;;;;;;;;13.93;87.58;100377.63;5086233;28;19972;-75
2021/10/06 00:27:16;;;;;;;;;;;;;;;13.88;87.59;100382.56;5086487;28;20007;-75
2021/10/06 00:29:44;;;;;;;;;;;;;;;13.91;87.53;100381.44;5068253;28;19995;-74
2021/10/06 00:32:12;;;;;;;;;;;;;;;13.82;88.00;100385.81;5087337;28;19973;-75
2021/10/06 00:34:39;;;;;;;;;;;;;;;13.84;88.42;100386.53;5086771;28;19984;-75
2021/10/06 00:37:07;;;;;;;;;;;;;;;13.79;89.19;100380.69;5086386;28;20343;-74
2021/10/06 00:39:35;;;;;;;;;;;;;;;13.79;89.31;100388.78;5086576;28;20315;-74
2021/10/06 00:42:05;;;;;;;;;;;;;;;13.77;89.96;100396.13;5086562;28;20075;-74
2021/10/06 00:44:34;;;;;;;;;;;;;;;13.75;89.70;100389.16;5086782;28;19973;-75
2021/10/06 00:47:02;;;;;;;;;;;;;;;13.74;90.31;100377.50;5086630;28;20038;-75
2021/10/06 00:49:30;;;;;;;;;;;;;;;13.74;90.79;100369.41;5086917;28;19973;-75
2021/10/06 00:51:58;;;;;;;;;;;;;;;13.76;90.83;100378.22;5063629;28;19969;-74
2021/10/06 00:54:26;;;;;;;;;;;;;;;13.66;91.27;100372.78;5084673;28;19988;-75
2021/10/06 00:56:54;;;;;;;;;;;;;;;13.73;91.23;100370.38;5085842;28;20375;-74
2021/10/06 00:59:23;;;;;;;;;;;;;;;13.69;92.01;100377.03;5086303;28;19980;-75
2021/10/06 01:01:51;;;;;;;;;;;;;;;13.65;92.72;100356.72;5082562;28;19972;-75
2021/10/06 01:04:19;;;;;;;;;;;;;;;13.65;92.19;100351.31;5086996;28;20351;-75
2021/10/06 01:06:47;;;;;;;;;;;;;;;13.62;92.83;100338.09;5067751;28;19973;-75
2021/10/06 01:09:15;;;;;;;;;;;;;;;13.62;92.93;100349.75;5085022;28;19977;-75
2021/10/06 01:11:43;;;;;;;;;;;;;;;13.63;93.09;100351.44;5085450;28;19973;-75
2021/10/06 01:14:11;;;;;;;;;;;;;;;13.61;93.84;100357.97;5085486;28;19984;-75
2021/10/06 01:16:41;;;;;;;;;;;;;;;13.64;94.07;100363.09;5085264;28;20280;-75
2021/10/06 01:19:18;;;;;;;;;;;;;;;13.63;94.24;100354.16;5086510;28;20400;-75
2021/10/06 01:21:47;;;;;;;;;;;;;;;13.64;93.91;100357.72;5085720;28;20065;-75
2021/10/06 01:24:15;;;;;;;;;;;;;;;13.66;93.60;100361.13;5085235;28;19969;-75
2021/10/06 01:26:43;;;;;;;;;;;;;;;13.70;93.82;100351.78;5086520;28;20026;-74
2021/10/06 01:29:14;;;;;;;;;;;;;;;13.74;94.00;100355.06;5086689;28;20342;-75
2021/10/06 01:31:42;;;;;;;;;;;;;;;13.70;94.51;100351.78;5086056;28;19980;-75
2021/10/06 01:34:11;;;;;;;;;;;;;;;13.76;94.43;100362.03;5085061;28;19984;-75
2021/10/06 01:36:39;;;;;;;;;;;;;;;13.74;94.49;100357.75;5085905;28;20334;-75
2021/10/06 01:39:09;;;;;;;;;;;;;;;13.75;94.34;100363.00;5086296;28;20376;-76
2021/10/06 01:41:37;;;;;;;;;;;;;;;13.77;94.16;100354.78;5085994;28;19983;-75
2021/10/06 01:44:05;;;;;;;;;;;;;;;13.75;94.15;100349.53;5086282;28;19931;-75
2021/10/06 01:46:33;;;;;;;;;;;;;;;13.75;94.92;100354.06;5085870;28;19993;-75
2021/10/06 01:49:01;;;;;;;;;;;;;;;13.79;94.74;100345.59;5086680;28;19968;-76
2021/10/06 01:51:28;;;;;;;;;;;;;;;13.79;94.20;100355.53;5084273;28;20482;-75
2021/10/06 01:53:56;;;;;;;;;;;;;;;13.86;93.91;100354.84;5067054;28;19985;-75
2021/10/06 01:56:25;;;;;;;;;;;;;;;13.86;94.14;100345.91;5059844;28;19973;-75
2021/10/06 01:58:53;;;;;;;;;;;;;;;13.86;94.11;100352.16;5086437;28;19976;-76
2021/10/06 02:01:21;;;;;;;;;;;;;;;13.85;93.97;100358.53;5066845;28;19980;-76
2021/10/06 02:03:49;;;;;;;;;;;;;;;13.82;94.24;100356.13;5084468;28;20027;-75
2021/10/06 02:06:17;;;;;;;;;;;;;;;13.87;94.42;100351.16;5086371;28;20417;-75
2021/10/06 02:08:45;;;;;;;;;;;;;;;13.89;93.76;100341.09;5085675;28;20310;-75
2021/10/06 02:11:13;;;;;;;;;;;;;;;13.90;94.32;100353.59;5085578;28;19972;-75
2021/10/06 02:13:42;;;;;;;;;;;;;;;13.31;93.85;100253.59;5085801;28;19955;-75
2021/10/06 02:16:10;;;;;;;;;;;;;;;13.88;93.99;100350.16;5084748;28;19968;-76
2021/10/06 02:18:38;;;;;;;;;;;;;;;13.88;93.50;100350.16;5084387;28;20419;-75
2021/10/06 02:21:07;;;;;;;;;;;;;;;14.01;93.58;100359.88;5085102;28;20233;-75
2021/10/06 02:23:35;;;;;;;;;;;;;;;13.91;93.50;100354.44;5084873;28;19973;-75
2021/10/06 02:26:02;;;;;;;;;;;;;;;14.02;93.39;100364.28;5083958;28;20038;-76
2021/10/06 02:28:30;;;;;;;;;;;;;;;14.05;92.89;100358.59;5087285;28;20323;-75
2021/10/06 02:30:59;;;;;;;;;;;;;;;14.14;92.33;100355.97;5088785;28;20310;-75
2021/10/06 02:33:27;;;;;;;;;;;;;;;14.08;92.60;100366.44;5088832;28;19976;-75
2021/10/06 02:35:55;;;;;;;;;;;;;;;14.14;92.83;100360.53;5087538;28;20428;-74
2021/10/06 02:38:23;;;;;;;;;;;;;;;14.06;93.10;100371.13;5087554;28;19972;-74
2021/10/06 02:40:51;;;;;;;;;;;;;;;14.10;93.17;100362.63;5088653;28;19968;-75
2021/10/06 02:43:19;;;;;;;;;;;;;;;14.18;92.27;100356.56;5070928;28;19980;-74
2021/10/06 02:45:47;;;;;;;;;;;;;;;14.22;92.03;100363.38;5088196;28;19996;-75
2021/10/06 02:48:16;;;;;;;;;;;;;;;14.16;92.53;100354.00;5089085;28;19969;-75
2021/10/06 02:50:44;;;;;;;;;;;;;;;14.16;92.30;100356.69;5088543;28;19972;-75
2021/10/06 02:53:12;;;;;;;;;;;;;;;14.16;92.48;100354.00;5088037;28;19976;-75
2021/10/06 02:55:40;;;;;;;;;;;;;;;14.23;92.10;100357.00;5088770;28;19988;-67
2021/10/06 02:58:08;;;;;;;;;;;;;;;14.22;92.34;100350.72;5088974;28;20438;-67
2021/10/06 03:00:36;;;;;;;;;;;;;;;14.28;91.84;100352.03;5087130;28;20415;-67
2021/10/06 03:03:04;;;;;;;;;;;;;;;14.17;92.84;100354.84;5087651;28;20022;-68
2021/10/06 03:05:33;;;;;;;;;;;;;;;14.14;92.71;100355.13;5086813;28;19980;-68
2021/10/06 03:08:01;;;;;;;;;;;;;;;14.10;92.90;100364.50;5087804;28;19975;-68
2021/10/06 03:10:29;;;;;;;;;;;;;;;14.12;93.26;100359.81;5086849;28;19976;-67
2021/10/06 03:12:57;;;;;;;;;;;;;;;14.20;92.71;100368.06;5066401;28;19968;-67
2021/10/06 03:15:26;;;;;;;;;;;;;;;14.24;92.44;100366.81;5089284;28;20044;-67
2021/10/06 03:17:54;;;;;;;;;;;;;;;14.15;92.65;100362.22;5087124;28;19969;-69
2021/10/06 03:20:21;;;;;;;;;;;;;;;14.16;92.77;100370.19;5082184;28;20435;-68
2021/10/06 03:22:51;;;;;;;;;;;;;;;14.18;92.72;100362.81;5084291;28;19973;-68
2021/10/06 03:25:19;;;;;;;;;;;;;;;14.36;91.53;100373.78;5089744;28;20439;-69
2021/10/06 03:27:46;;;;;;;;;;;;;;;14.18;92.45;100373.59;5072255;28;20062;-68
2021/10/06 03:30:14;;;;;;;;;;;;;;;14.17;92.21;100371.03;5072378;28;19968;-68
2021/10/06 03:32:42;;;;;;;;;;;;;;;14.26;92.53;100375.63;5071925;28;19979;-74
2021/10/06 03:35:10;;;;;;;;;;;;;;;14.39;91.24;100369.97;5090000;28;19985;-74
2021/10/06 03:37:38;;;;;;;;;;;;;;;14.39;91.64;100378.06;5090118;28;19980;-74
2021/10/06 03:40:09;;;;;;;;;;;;;;;14.38;91.89;100377.22;5088857;28;19992;-74
2021/10/06 03:42:37;;;;;;;;;;;;;;;14.46;90.74;100385.53;5089924;28;20576;-74
2021/10/06 03:45:05;;;;;;;;;;;;;;;14.44;91.25;100374.03;5071687;28;19973;-74
2021/10/06 03:47:33;;;;;;;;;;;;;;;14.37;91.80;100380.91;5089457;28;19992;-74
2021/10/06 03:50:01;;;;;;;;;;;;;;;14.36;91.48;100381.03;5089868;28;20016;-74
2021/10/06 03:52:28;;;;;;;;;;;;;;;14.41;91.16;100387.78;5088543;28;20327;-74
2021/10/06 03:54:56;;;;;;;;;;;;;;;14.40;91.16;100391.47;5089903;28;20304;-74
2021/10/06 03:57:26;;;;;;;;;;;;;;;14.37;91.29;100393.56;5090008;28;19977;-68
2021/10/06 03:59:53;;;;;;;;;;;;;;;14.31;92.07;100384.16;5089851;28;19972;-68
2021/10/06 04:02:21;;;;;;;;;;;;;;;14.35;92.18;100391.00;5089676;28;20435;-74
2021/10/06 04:04:49;;;;;;;;;;;;;;;14.32;92.17;100390.41;5071209;28;20238;-74
2021/10/06 04:07:17;;;;;;;;;;;;;;;14.45;91.87;100385.69;5088944;28;19968;-74
2021/10/06 04:09:45;;;;;;;;;;;;;;;14.43;91.25;100388.53;5089127;28;20007;-74
2021/10/06 04:12:13;;;;;;;;;;;;;;;14.53;90.52;100389.41;5089432;28;20431;-74
2021/10/06 04:14:42;;;;;;;;;;;;;;;14.51;90.68;100395.94;5089137;28;19984;-74
2021/10/06 04:17:10;;;;;;;;;;;;;;;14.44;91.09;100389.38;5089283;28;20252;-74
2021/10/06 04:19:38;;;;;;;;;;;;;;;14.47;91.10;100405.31;5088778;28;20415;-75
2021/10/06 04:22:06;;;;;;;;;;;;;;;14.30;91.87;100404.91;5088297;28;19991;-74
2021/10/06 04:24:33;;;;;;;;;;;;;;;14.34;92.13;100393.84;5088556;28;20454;-74
2021/10/06 04:27:01;;;;;;;;;;;;;;;14.35;92.22;100400.94;5089743;28;20338;-74
2021/10/06 04:29:29;;;;;;;;;;;;;;;14.30;91.82;100398.66;5089065;28;19976;-75
2021/10/06 04:31:58;;;;;;;;;;;;;;;14.41;91.92;100401.28;5089360;28;19968;-74
2021/10/06 04:34:26;;;;;;;;;;;;;;;14.45;91.13;100405.44;5089146;28;19972;-75
2021/10/06 04:36:54;;;;;;;;;;;;;;;14.49;90.85;100400.63;5088785;28;19984;-75
2021/10/06 04:39:22;;;;;;;;;;;;;;;14.53;91.27;100411.00;5089299;28;19983;-74
2021/10/06 04:41:50;;;;;;;;;;;;;;;14.59;90.98;100413.16;5070340;28;19983;-74
2021/10/06 04:44:18;;;;;;;;;;;;;;;14.57;90.55;100409.75;5070444;28;19959;-74
2021/10/06 04:46:47;;;;;;;;;;;;;;;14.47;91.01;100411.56;5088521;28;19992;-74
2021/10/06 04:49:17;;;;;;;;;;;;;;;14.47;91.13;100413.41;5088416;28;20432;-75
2021/10/06 04:51:45;;;;;;;;;;;;;;;14.35;91.91;100406.34;5088459;28;20029;-74
2021/10/06 04:54:13;;;;;;;;;;;;;;;14.47;91.94;100421.53;5085908;28;19969;-74
2021/10/06 04:56:40;;;;;;;;;;;;;;;14.40;91.49;100412.22;5088631;28;19988;-74
2021/10/06 04:59:08;;;;;;;;;;;;;;;14.44;91.60;100417.25;5084806;28;19960;-74
2021/10/06 05:01:36;;;;;;;;;;;;;;;14.44;91.44;100417.25;5083870;28;20296;-75
2021/10/06 05:04:06;;;;;;;;;;;;;;;14.38;92.11;100420.44;5085285;28;19968;-75
2021/10/06 05:06:35;;;;;;;;;;;;;;;14.34;92.49;100420.84;5082477;28;19968;-75
2021/10/06 05:09:03;;;;;;;;;;;;;;;14.30;92.17;100421.13;5086948;28;19973;-75
2021/10/06 05:11:31;;;;;;;;;;;;;;;14.40;92.19;100418.47;5086423;28;19984;-75
2021/10/06 05:13:59;;;;;;;;;;;;;;;14.43;91.78;100411.97;5086973;28;20056;-75
2021/10/06 05:16:27;;;;;;;;;;;;;;;14.44;92.46;100428.06;5068646;28;19992;-75
2021/10/06 05:18:55;;;;;;;;;;;;;;;14.38;92.01;100428.53;5085144;28;20316;-75
2021/10/06 05:21:23;;;;;;;;;;;;;;;14.34;92.25;100431.66;5083855;28;19973;-74
2021/10/06 05:23:52;;;;;;;;;;;;;;;14.46;92.02;100431.47;5083622;28;20186;-75
2021/10/06 05:26:20;;;;;;;;;;;;;;;14.41;92.58;100428.31;5066293;28;19979;-75
2021/10/06 05:28:51;;;;;;;;;;;;;;;14.43;92.30;100439.84;5082707;28;20063;-72
2021/10/06 05:31:18;;;;;;;;;;;;;;;14.46;92.07;100445.00;5080679;28;20026;-74
2021/10/06 05:33:47;;;;;;;;;;;;;;;14.41;92.52;100441.81;5087882;28;19976;-73
2021/10/06 05:36:15;;;;;;;;;;;;;;;14.32;93.05;100439.03;5087639;28;20359;-73
2021/10/06 05:38:43;;;;;;;;;;;;;;;14.34;92.50;100443.31;5086169;28;20343;-74
2021/10/06 05:41:13;;;;;;;;;;;;;;;14.32;93.35;100449.84;5082105;28;19976;-73
2021/10/06 05:43:40;;;;;;;;;;;;;;;14.42;92.57;100445.38;5087447;28;19983;-73
2021/10/06 05:46:08;;;;;;;;;;;;;;;14.40;92.78;100441.94;5085450;28;19999;-73
2021/10/06 05:48:36;;;;;;;;;;;;;;;14.42;92.47;100446.22;5086804;28;19978;-73
2021/10/06 05:51:04;;;;;;;;;;;;;;;14.37;92.74;100447.59;5087435;28;19977;-73
2021/10/06 05:53:32;;;;;;;;;;;;;;;14.34;93.44;100454.13;5087530;28;19969;-73
2021/10/06 05:56:00;;;;;;;;;;;;;;;14.29;93.36;100456.38;5087853;28;20447;-73
2021/10/06 05:58:29;;;;;;;;;;;;;;;14.36;93.73;100462.09;5087732;28;20007;-73
2021/10/06 06:00:57;;;;;;;;;;;;;;;14.29;93.56;100465.34;5087902;28;20026;-74
2021/10/06 06:03:25;;;;;;;;;;;;;;;14.32;93.62;100475.03;5090057;28;20072;-74
2021/10/06 06:05:53;;;;;;;;;;;;;;;14.34;93.90;100473.03;5088626;28;19969;-75
2021/10/06 06:08:21;;;;;;;;;;;;;;;14.36;93.82;100479.16;5089201;28;20003;-74
2021/10/06 06:10:49;;;;;;;;;;;;;;;14.37;93.90;100478.16;5087082;28;19962;-75
2021/10/06 06:13:17;;;;;;;;;;;;;;;14.36;93.48;100476.47;5072561;28;19969;-70
2021/10/06 06:15:51;;;;;;;;;;;;;;;14.32;93.76;100480.41;5089740;28;20425;-69
2021/10/06 06:18:19;;;;;;;;;;;;;;;14.36;94.05;100484.56;5079602;28;19979;-69
2021/10/06 06:20:48;;;;;;;;;;;;;;;14.41;93.54;100482.34;5071995;28;19981;-69
2021/10/06 06:23:15;;;;;;;;;;;;;;;14.41;93.62;100487.75;5091034;28;19968;-69
2021/10/06 06:25:43;;;;;;;;;;;;;;;14.41;93.56;100489.59;5091406;28;20319;-69
2021/10/06 06:28:11;;;;;;;;;;;;;;;14.40;93.87;100493.28;5091533;28;20505;-69
2021/10/06 06:30:41;;;;;;;;;;;;;;;14.33;94.06;100495.63;5091670;28;19976;-69
2021/10/06 06:33:10;;;;;;;;;;;;;;;14.43;94.25;100491.19;5090766;28;19981;-69
2021/10/06 06:35:38;;;;;;;;;;;;;;;14.46;93.44;100495.47;5091339;28;20458;-69
2021/10/06 06:38:06;;;;;;;;;;;;;;;14.43;93.89;100499.31;5091727;28;19991;-69
2021/10/06 06:40:34;;;;;;;;;;;;;;;14.42;94.54;100502.09;5091155;28;20068;-69
2021/10/06 06:43:02;;;;;;;;;;;;;;;14.46;94.01;100501.72;5091346;28;20486;-69
2021/10/06 06:45:30;;;;;;;;;;;;;;;14.41;94.72;100503.09;5091779;28;20051;-69
2021/10/06 06:47:58;;;;;;;;;;;;;;;14.49;94.04;100516.81;5091701;28;20399;-69
2021/10/06 06:50:45;;;;;;;;;;;;;;;14.54;94.42;100515.41;5090967;28;20025;-69
2021/10/06 06:53:13;;;;;;;;;;;;;;;14.52;93.88;100520.09;5091295;28;20340;-70
2021/10/06 06:55:41;;;;;;;;;;;;;;;14.56;94.38;100526.94;5090663;28;19969;-69
2021/10/06 06:58:09;;;;;;;;;;;;;;;14.68;93.33;100526.84;5072488;28;19988;-70
2021/10/06 07:00:37;;;;;;;;;;;;;;;14.71;93.47;100522.03;5089284;28;19968;-70
2021/10/06 07:03:05;;;;;;;;;;;;;;;14.74;93.23;100526.31;5091077;28;19973;-70
2021/10/06 07:05:33;;;;;;;;;;;;;;;14.71;93.72;100521.19;5090695;28;20097;-69
2021/10/06 07:08:03;;;;;;;;;;;;;;;14.73;93.51;100521.91;5090933;28;20499;-69
2021/10/06 07:10:31;;;;;;;;;;;;;;;14.73;93.10;100525.47;5091045;28;19972;-70
2021/10/06 07:12:59;;;;;;;;;;;;;;;14.73;93.35;100528.16;5091029;28;19976;-70
2021/10/06 07:15:28;;;;;;;;;;;;;;;14.60;94.05;100533.78;5072683;28;19954;-70
2021/10/06 07:17:56;;;;;;;;;;;;;;;14.64;93.82;100539.78;5072258;28;19991;-69
2021/10/06 07:20:24;;;;;;;;;;;;;;;14.65;94.18;100551.44;5090806;28;19980;-70
2021/10/06 07:22:53;;;;;;;;;;;;;;;14.64;94.13;100563.25;5090246;28;20310;-70
2021/10/06 07:25:23;;;;;;;;;;;;;;;14.54;94.76;100569.47;5087296;28;19979;-69
2021/10/06 07:27:51;;;;;;;;;;;;;;;14.60;94.71;100573.47;5072368;28;19987;-70
2021/10/06 07:30:19;;;;;;;;;;;;;;;14.64;95.00;100574.06;5091351;28;19976;-69
2021/10/06 07:32:47;;;;;;;;;;;;;;;14.75;94.00;100579.41;5090628;28;19980;-69
2021/10/06 07:35:15;;;;;;;;;;;;;;;14.75;93.78;100582.09;5090464;28;19995;-70
2021/10/06 07:37:50;;;;;;;;;;;;;;;14.78;94.25;100582.69;5090138;28;20331;-70
2021/10/06 07:40:18;;;;;;;;;;;;;;;14.77;94.00;100590.94;5090647;28;19968;-69
2021/10/06 07:42:47;;;;;;;;;;;;;;;14.77;94.71;100596.34;5090372;28;20408;-70
2021/10/06 07:45:15;;;;;;;;;;;;;;;14.83;94.22;100596.66;5090386;28;20363;-70
2021/10/06 07:47:43;;;;;;;;;;;;;;;14.85;93.88;100591.97;5089772;28;20494;-70
2021/10/06 07:50:11;;;;;;;;;;;;;;;14.86;94.17;100599.09;5089299;28;20481;-70
2021/10/06 07:52:40;;;;;;;;;;;;;;;14.94;94.04;100598.41;5089952;28;19976;-69
2021/10/06 07:55:09;;;;;;;;;;;;;;;15.00;93.72;100606.00;5090172;28;19972;-69
2021/10/06 07:57:37;;;;;;;;;;;;;;;14.94;93.63;100611.91;5089512;28;19989;-70
2021/10/06 08:00:09;;;;;;;;;;;;;;;15.00;93.47;100613.22;5089674;28;19979;-70
2021/10/06 08:02:40;;;;;;;;;;;;;;;15.02;93.94;100617.53;5089110;28;19969;-69
2021/10/06 08:05:08;;;;;;;;;;;;;;;15.06;93.49;100616.25;5090053;28;19995;-69
2021/10/06 08:07:39;;;;;;;;;;;;;;;15.08;93.44;100630.50;5089972;28;19976;-70
2021/10/06 08:10:08;;;;;;;;;;;;;;;15.21;92.55;100636.53;5088053;28;19972;-69
2021/10/06 08:12:36;;;;;;;;;;;;;;;15.22;92.62;100634.69;5089582;28;19975;-70
2021/10/06 08:15:04;;;;;;;;;;;;;;;15.25;92.52;100636.25;5089800;28;20497;-69
2021/10/06 08:17:33;;;;;;;;;;;;;;;15.27;92.80;100639.69;5071233;28;20091;-69
2021/10/06 08:20:01;;;;;;;;;;;;;;;15.27;92.57;100645.94;5088468;28;20003;-69
2021/10/06 08:22:29;;;;;;;;;;;;;;;15.30;92.43;100648.38;5089411;28;20345;-70
2021/10/06 08:24:57;;;;;;;;;;;;;;;15.37;92.35;100654.13;5088704;28;20042;-70
2021/10/06 08:27:25;;;;;;;;;;;;;;;15.32;91.90;100662.66;5089285;28;20416;-69
2021/10/06 08:29:53;;;;;;;;;;;;;;;15.32;91.72;100668.06;5088874;28;19969;-69
2021/10/06 08:32:21;;;;;;;;;;;;;;;15.37;91.73;100670.34;5089503;28;20358;-70
2021/10/06 08:34:50;;;;;;;;;;;;;;;15.38;92.06;100675.63;5088430;28;20378;-70
2021/10/06 08:37:18;;;;;;;;;;;;;;;15.45;91.06;100674.09;5089309;28;19999;-69
2021/10/06 08:39:46;;;;;;;;;;;;;;;15.54;90.90;100673.25;5087215;28;19972;-70
2021/10/06 08:42:14;;;;;;;;;;;;;;;15.68;89.81;100685.59;5089305;28;19959;-70
2021/10/06 08:44:44;;;;;;;;;;;;;;;15.64;89.67;100692.28;5088626;28;20374;-70
2021/10/06 08:47:13;;;;;;;;;;;;;;;15.65;90.02;100701.25;5086676;28;19988;-70
2021/10/06 08:49:43;;;;;;;;;;;;;;;15.58;89.69;100703.63;5088808;28;20471;-70
2021/10/06 08:52:16;;;;;;;;;;;;;;;15.71;89.58;100706.97;5088900;28;19969;-70
2021/10/06 08:54:44;;;;;;;;;;;;;;;15.77;88.56;100717.25;5088961;28;20335;-70
2021/10/06 08:57:16;;;;;;;;;;;;;;;15.76;88.45;100720.97;5084212;28;19985;-69
2021/10/06 08:59:44;;;;;;;;;;;;;;;15.80;88.04;100737.78;5062713;28;20007;-70
2021/10/06 09:02:13;;;;;;;;;;;;;;;15.80;87.13;100740.50;5089071;28;20439;-69
2021/10/06 09:04:41;;;;;;;;;;;;;;;15.78;86.88;100745.19;5088451;28;19976;-70
2021/10/06 09:07:09;;;;;;;;;;;;;;;15.91;86.53;100747.63;5088864;28;20334;-70
2021/10/06 09:09:39;;;;;;;;;;;;;;;15.83;86.51;100746.47;5088512;28;19973;-70
2021/10/06 09:12:11;;;;;;;;;;;;;;;15.75;86.34;100751.75;5089081;28;19973;-69
2021/10/06 09:14:41;;;;;;;;;;;;;;;15.86;86.53;100753.47;5088471;28;20067;-70
2021/10/06 09:17:11;;;;;;;;;;;;;;;15.97;86.24;100760.66;5070242;28;19979;-70
2021/10/06 09:19:40;;;;;;;;;;;;;;;15.92;86.41;100771.03;5088518;28;20338;-69
2021/10/06 09:22:12;;;;;;;;;;;;;;;15.94;85.24;100772.63;5088612;28;20396;-70
2021/10/06 09:24:49;;;;;;;;;;;;;;;16.12;85.05;100775.50;5087691;28;20353;-70
2021/10/06 09:27:18;;;;;;;;;;;;;;;16.09;85.02;100792.03;5088867;28;19975;-70
2021/10/06 09:29:47;;;;;;;;;;;;;;;16.14;84.45;100795.19;5087925;28;20357;-69
2021/10/06 09:32:22;;;;;;;;;;;;;;;16.08;83.46;100796.59;5088545;28;19969;-69
2021/10/06 09:35:00;;;;;;;;;;;;;;;16.08;83.32;100790.34;5088213;28;20366;-69
2021/10/06 09:37:28;;;;;;;;;;;;;;;16.09;83.90;100809.16;5088912;28;19972;-70
2021/10/06 09:39:58;;;;;;;;;;;;;;;16.00;84.32;100825.41;5090835;28;20385;-69
2021/10/06 09:42:26;;;;;;;;;;;;;;;15.94;84.60;100820.53;5092763;28;19972;-69
2021/10/06 09:44:55;;;;;;;;;;;;;;;15.97;84.96;100821.09;5091950;28;20246;-70
2021/10/06 09:47:23;;;;;;;;;;;;;;;16.02;84.28;100831.53;5071098;28;20000;-70
2021/10/06 09:49:55;;;;;;;;;;;;;;;16.00;84.58;100836.22;5070973;28;20513;-70
2021/10/06 09:52:24;;;;;;;;;;;;;;;15.97;84.36;100842.78;5059074;28;20087;-69
2021/10/06 09:54:53;;;;;;;;;;;;;;;15.98;83.57;100849.06;5071817;28;20444;-70
2021/10/06 09:57:28;;;;;;;;;;;;;;;15.93;83.89;100851.31;5072024;28;20015;-70
2021/10/06 09:59:56;;;;;;;;;;;;;;;15.95;84.75;100843.91;5072079;28;19972;-70
2021/10/06 10:02:26;;;;;;;;;;;;;;;15.98;83.84;100846.34;5071980;28;19979;-69
2021/10/06 10:04:55;;;;;;;;;;;;;;;15.65;83.57;100798.72;5071716;28;20459;-69
2021/10/06 10:07:23;;;;;;;;;;;;;;;15.66;84.05;100801.31;5071735;28;19977;-69
2021/10/06 10:09:52;;;;;;;;;;;;;;;16.03;84.48;100844.94;5070668;28;19976;-69
2021/10/06 10:12:21;;;;;;;;;;;;;;;16.09;84.73;100851.66;5071882;28;20336;-69
2021/10/06 10:14:50;;;;;;;;;;;;;;;16.14;83.43;100863.78;5071408;28;19973;-69
2021/10/06 10:17:19;;;;;;;;;;;;;;;16.31;83.71;100866.84;5071978;28;19991;-69
2021/10/06 10:19:52;;;;;;;;;;;;;;;16.40;82.45;100872.31;5070892;28;20414;-69
2021/10/06 10:22:21;;;;;;;;;;;;;;;16.45;82.92;100882.72;5071485;28;19979;-69
2021/10/06 10:24:50;;;;;;;;;;;;;;;16.48;82.29;100887.00;5071078;28;19973;-69
2021/10/06 10:27:20;;;;;;;;;;;;;;;16.58;81.02;100890.63;5071532;28;20428;-69
2021/10/06 10:29:49;;;;;;;;;;;;;;;16.51;81.59;100895.72;5069071;28;19970;-69
2021/10/06 10:32:19;;;;;;;;;;;;;;;16.50;80.61;100902.13;5071308;28;19972;-69
2021/10/06 10:35:00;;;;;;;;;;;;;;;16.58;80.99;100906.91;5070813;28;20409;-69
2021/10/06 10:37:47;;;;;;;;;;;;;;;16.38;79.02;100905.97;5071510;28;20067;-69
2021/10/06 10:40:30;;;;;;;;;;;;;;;16.40;79.16;100918.38;5071057;28;20014;-69
2021/10/06 10:42:59;;;;;;;;;;;;;;;16.38;79.47;100922.22;5070954;28;20343;-69
2021/10/06 10:45:36;;;;;;;;;;;;;;;16.29;79.50;100934.75;5071697;28;19973;-69
2021/10/06 10:48:06;;;;;;;;;;;;;;;16.37;79.59;100925.94;5091082;28;19972;-69
2021/10/06 10:50:38;;;;;;;;;;;;;;;16.40;79.02;100931.09;5091268;28;20390;-69
2021/10/06 10:53:07;;;;;;;;;;;;;;;16.22;78.64;100924.56;5091156;28;19979;-69
2021/10/06 10:55:46;;;;;;;;;;;;;;;16.30;76.78;100928.34;5072344;28;19949;-69
2021/10/06 10:58:32;;;;;;;;;;;;;;;16.22;76.74;100930.84;5073154;28;19972;-69
2021/10/06 11:01:01;;;;;;;;;;;;;;;16.43;77.22;100923.53;5071067;28;19973;-69
2021/10/06 11:03:30;;;;;;;;;;;;;;;16.55;77.98;100927.00;5087067;28;20346;-69
2021/10/06 11:05:58;;;;;;;;;;;;;;;16.63;77.38;100938.03;5091047;28;19975;-69
2021/10/06 11:08:27;;;;;;;;;;;;;;;16.73;75.73;100940.78;5091292;28;20439;-69
2021/10/06 11:11:15;;;;;;;;;;;;;;;16.72;76.11;100945.34;5067254;28;20178;-69
2021/10/06 11:13:43;;;;;;;;;;;;;;;16.70;74.46;100954.63;5084486;28;19972;-69
2021/10/06 11:16:11;;;;;;;;;;;;;;;16.70;74.74;100951.91;5090807;28;19977;-69
2021/10/06 11:18:41;;;;;;;;;;;;;;;16.68;75.02;100951.19;5090518;28;19991;-69
2021/10/06 11:21:10;;;;;;;;;;;;;;;16.73;74.02;100959.75;5089888;28;19988;-69
2021/10/06 11:23:39;;;;;;;;;;;;;;;16.84;74.13;100956.97;5090028;28;19972;-69
2021/10/06 11:26:08;;;;;;;;;;;;;;;16.84;74.51;100959.69;5090158;28;19972;-69
2021/10/06 11:28:36;;;;;;;;;;;;;;;16.68;73.63;100968.31;5089876;28;19978;-69
2021/10/06 11:31:05;;;;;;;;;;;;;;;16.63;74.16;100972.41;5090682;28;20378;-68
2021/10/06 11:33:33;;;;;;;;;;;;;;;16.68;73.54;100972.88;5090324;28;19972;-68
2021/10/06 11:36:12;;;;;;;;;;;;;;;16.70;73.39;100968.19;5090619;28;19972;-68
2021/10/06 11:38:41;;;;;;;;;;;;;;;16.75;73.91;100977.63;5071663;28;19985;-68
2021/10/06 11:41:09;;;;;;;;;;;;;;;16.66;72.22;100980.31;5090246;28;19995;-68
2021/10/06 11:43:39;;;;;;;;;;;;;;;16.67;73.16;100991.00;5089636;28;20431;-69
2021/10/06 11:46:06;;;;;;;;;;;;;;;16.55;72.56;101000.22;5089335;28;19993;-68
2021/10/06 11:48:34;;;;;;;;;;;;;;;16.63;73.41;101008.53;5089082;28;19969;-68
2021/10/06 11:51:02;;;;;;;;;;;;;;;16.53;72.95;101009.47;5090181;28;20646;-68
2021/10/06 11:53:45;;;;;;;;;;;;;;;16.61;72.89;101017.78;5089950;28;20435;-68
2021/10/06 11:56:23;;;;;;;;;;;;;;;16.61;73.31;101010.53;5090114;28;20615;-74
2021/10/06 11:58:51;;;;;;;;;;;;;;;16.68;72.98;101017.16;5089257;28;20331;-74
2021/10/06 12:01:19;;;;;;;;;;;;;;;16.61;72.89;101018.66;5088906;28;19977;-74
2021/10/06 12:03:47;;;;;;;;;;;;;;;16.77;73.21;101019.03;5071089;28;19984;-74
2021/10/06 12:06:20;;;;;;;;;;;;;;;16.71;72.15;101026.84;5089542;28;19968;-74
2021/10/06 12:08:49;;;;;;;;;;;;;;;16.82;73.14;101031.31;5089104;28;19979;-74
2021/10/06 12:11:19;;;;;;;;;;;;;;;16.84;72.91;101034.78;5089110;28;19969;-74
2021/10/06 12:13:47;;;;;;;;;;;;;;;16.73;72.36;101041.13;5089170;28;20362;-74
2021/10/06 12:16:25;;;;;;;;;;;;;;;16.91;72.79;101049.50;5090070;28;20400;-74
2021/10/06 12:18:58;;;;;;;;;;;;;;;16.90;72.20;101048.66;5088880;28;20070;-74
2021/10/06 12:21:26;;;;;;;;;;;;;;;16.69;72.53;101058.69;5089767;28;19982;-74
2021/10/06 12:23:59;;;;;;;;;;;;;;;16.74;73.19;101056.41;5089452;28;20356;-74
2021/10/06 12:26:30;;;;;;;;;;;;;;;16.71;72.04;101065.69;5086318;28;20451;-74
2021/10/06 12:28:59;;;;;;;;;;;;;;;16.64;71.45;101061.78;5088851;28;19999;-74
2021/10/06 12:31:28;;;;;;;;;;;;;;;16.55;72.81;101075.28;5089267;28;20333;-75
2021/10/06 12:34:09;;;;;;;;;;;;;;;16.66;72.64;101075.22;5089047;28;19972;-75
2021/10/06 12:36:38;;;;;;;;;;;;;;;16.64;72.76;101078.03;5088027;28;19984;-74
2021/10/06 12:39:17;;;;;;;;;;;;;;;16.60;71.79;101075.75;5089408;28;20374;-74
2021/10/06 12:41:51;;;;;;;;;;;;;;;16.52;71.22;101086.38;5088615;28;19983;-75
2021/10/06 12:44:24;;;;;;;;;;;;;;;16.52;71.59;101075.53;5057952;28;20450;-74
2021/10/06 12:46:53;;;;;;;;;;;;;;;16.68;71.91;101084.09;5085504;28;19988;-74